Time;durP1;ratioP1;P1;durP2;ratioP2;P2;SDS_P1;SDS_P2;PMS_P1;PMS_P2;Temp;Humidity;BMP_temperature;BMP_pressure;BME280_temperature;BME280_humidity;BME280_pressure;Samples;Min_cycle;Max_cycle;Signal;HPM_P1;HPM_P2
2022/10/28 00:01:21;;;;;;;31.90;17.82;;;;;;;7.67;71.90;102606.83;1801052;79;25487;-65
2022/10/28 00:03:55;;;;;;;29.10;16.40;;;;;;;7.68;71.77;102603.21;1785050;80;27455;-64
2022/10/28 00:06:30;;;;;;;25.60;17.00;;;;;;;7.71;71.75;102595.04;1789309;80;25809;-64
2022/10/28 00:08:58;;;;;;;30.57;17.07;;;;;;;7.72;71.74;102599.46;1772034;80;25659;-64
2022/10/28 00:11:33;;;;;;;27.25;16.07;;;;;;;7.74;71.81;102596.25;1757628;80;26567;-64
2022/10/28 00:14:04;;;;;;;24.75;15.70;;;;;;;7.77;71.80;102596.56;1775766;80;25770;-63
2022/10/28 00:16:35;;;;;;;30.05;16.42;;;;;;;7.80;71.78;102596.39;1758497;80;27270;-64
2022/10/28 00:19:06;;;;;;;29.35;17.90;;;;;;;7.84;71.90;102591.30;1757556;80;25751;-64
2022/10/28 00:21:36;;;;;;;27.75;16.90;;;;;;;7.82;71.69;102588.70;1767432;81;25235;-63
2022/10/28 00:24:06;;;;;;;25.30;18.15;;;;;;;7.81;71.66;102590.98;1761688;80;26595;-64
2022/10/28 00:26:35;;;;;;;27.48;17.87;;;;;;;7.82;71.71;102582.01;1750797;81;25705;-64
2022/10/28 00:29:08;;;;;;;33.48;18.75;;;;;;;7.82;71.58;102584.69;1787060;80;28338;-64
2022/10/28 00:31:37;;;;;;;25.30;16.53;;;;;;;7.83;71.53;102581.52;1758287;80;25695;-63
2022/10/28 00:34:08;;;;;;;28.15;17.67;;;;;;;7.83;71.37;102583.75;1758742;80;25443;-63
2022/10/28 00:36:39;;;;;;;29.42;18.85;;;;;;;7.81;71.38;102578.93;1807261;79;25730;-65
2022/10/28 00:39:13;;;;;;;36.38;18.10;;;;;;;7.81;71.35;102583.40;1798887;78;25461;-63
2022/10/28 00:41:52;;;;;;;27.07;17.80;;;;;;;7.80;71.27;102580.32;1818847;78;27451;-62
2022/10/28 00:44:44;;;;;;;27.32;17.70;;;;;;;7.78;71.32;102587.10;1810619;78;25807;-64
2022/10/28 00:47:43;;;;;;;33.33;17.85;;;;;;;7.74;71.28;102578.83;1787081;80;25622;-63
2022/10/28 00:50:34;;;;;;;31.82;19.90;;;;;;;7.72;71.72;102589.20;1785467;78;25724;-64
2022/10/28 00:53:26;;;;;;;26.50;17.73;;;;;;;7.67;71.85;102581.38;1765253;77;25820;-62
2022/10/28 00:55:55;;;;;;;34.63;17.77;;;;;;;7.65;71.99;102583.28;1780518;80;28349;-64
2022/10/28 00:58:25;;;;;;;28.67;17.73;;;;;;;7.68;72.56;102585.80;1791340;77;25845;-65
2022/10/28 01:00:53;;;;;;;33.45;17.32;;;;;;;7.71;72.64;102575.44;1768272;80;25789;-64
2022/10/28 01:03:20;;;;;;;26.07;17.80;;;;;;;7.74;72.79;102570.80;1798470;77;25746;-63
2022/10/28 01:05:49;;;;;;;28.80;17.90;;;;;;;7.78;72.96;102575.53;1789204;77;25698;-64
2022/10/28 01:08:17;;;;;;;30.37;17.50;;;;;;;7.79;73.00;102579.47;1816302;78;27599;-65
2022/10/28 01:11:09;;;;;;;23.65;16.42;;;;;;;7.81;73.14;102573.57;1784156;78;25718;-64
2022/10/28 01:14:03;;;;;;;32.17;16.37;;;;;;;7.85;73.30;102574.29;1767892;80;25712;-63
2022/10/28 01:17:00;;;;;;;30.80;17.33;;;;;;;7.88;73.28;102566.11;1761311;80;26643;-65
2022/10/28 01:20:05;;;;;;;25.32;16.65;;;;;;;7.92;73.32;102566.83;1759480;80;25787;-63
2022/10/28 01:22:44;;;;;;;31.57;16.95;;;;;;;7.94;73.16;102563.58;1761980;80;27896;-63
2022/10/28 01:25:41;;;;;;;26.85;15.98;;;;;;;7.96;73.12;102565.27;1779656;78;25921;-63
2022/10/28 01:28:35;;;;;;;27.87;16.97;;;;;;;7.94;73.34;102558.22;1783967;80;35446;-64
2022/10/28 01:31:39;;;;;;;30.12;16.73;;;;;;;7.91;73.36;102563.75;1789667;80;25764;-62
2022/10/28 01:34:19;;;;;;;;;;;;;;;7.93;73.50;102560.53;1777684;80;25675;-64
2022/10/28 01:37:10;;;;;;;29.75;16.23;;;;;;;7.87;73.28;102552.77;1739436;80;26311;-63
2022/10/28 01:40:17;;;;;;;31.80;16.05;;;;;;;7.86;73.27;102557.72;1763134;80;25740;-63
2022/10/28 01:43:10;;;;;;;32.70;17.25;;;;;;;7.83;73.26;102554.28;1761931;80;25787;-62
2022/10/28 01:46:03;;;;;;;25.23;15.48;;;;;;;7.78;73.24;102556.78;1759600;80;25845;-65
2022/10/28 01:48:38;;;;;;;28.52;15.90;;;;;;;7.76;73.22;102552.81;1760993;80;26152;-64
2022/10/28 01:51:24;;;;;;;30.25;15.85;;;;;;;7.75;73.39;102550.22;1768815;80;28332;-65
2022/10/28 01:53:52;;;;;;;24.60;16.23;;;;;;;7.70;73.42;102554.45;1763488;80;26374;-64
2022/10/28 01:56:33;;;;;;;23.42;16.15;;;;;;;7.64;73.45;102555.61;1757043;80;25787;-63
2022/10/28 01:59:04;;;;;;;28.75;17.62;;;;;;;7.63;73.43;102556.55;1764640;80;25806;-64
2022/10/28 02:01:34;;;;;;;28.45;16.25;;;;;;;7.60;73.50;102547.34;1759786;80;25764;-64
2022/10/28 02:04:02;;;;;;;28.25;15.08;;;;;;;7.60;73.64;102550.47;1784803;79;27920;-63
2022/10/28 02:06:33;;;;;;;28.05;16.45;;;;;;;7.59;73.69;102552.75;1789637;78;25810;-63
2022/10/28 02:09:12;;;;;;;27.02;15.80;;;;;;;7.55;73.64;102554.70;1774335;80;25833;-64
2022/10/28 02:12:02;;;;;;;25.20;16.35;;;;;;;7.53;73.51;102551.23;1773046;80;25807;-64
2022/10/28 02:14:43;;;;;;;35.28;16.73;;;;;;;7.54;73.62;102550.77;1775561;80;25802;-62
2022/10/28 02:17:49;;;;;;;32.28;18.15;;;;;;;7.54;73.40;102555.64;1745524;80;28259;-63
2022/10/28 02:20:38;;;;;;;33.45;16.37;;;;;;;7.54;73.40;102548.09;1778154;80;25747;-65
2022/10/28 02:23:16;;;;;;;32.65;16.65;;;;;;;7.54;73.43;102542.73;1780603;80;25459;-68
2022/10/28 02:25:59;;;;;;;41.92;17.55;;;;;;;7.57;73.61;102542.61;1784120;80;26173;-64
2022/10/28 02:28:44;;;;;;;38.23;19.62;;;;;;;7.60;73.60;102538.42;1777095;80;26483;-63
2022/10/28 02:31:29;;;;;;;30.52;16.93;;;;;;;7.59;73.43;102542.92;1783778;79;27495;-63
2022/10/28 02:34:01;;;;;;;32.98;16.52;;;;;;;7.58;73.28;102542.97;1757381;80;25839;-64
2022/10/28 02:36:36;;;;;;;26.75;17.02;;;;;;;7.56;73.15;102543.55;1769623;80;25775;-64
2022/10/28 02:39:08;;;;;;;28.47;16.85;;;;;;;7.51;73.10;102539.26;1772093;78;25284;-66
2022/10/28 02:41:46;;;;;;;28.42;17.12;;;;;;;7.47;72.86;102543.04;1785085;79;25893;-66
2022/10/28 02:44:18;;;;;;;26.60;17.35;;;;;;;7.40;72.66;102547.41;1777846;79;28201;-65
2022/10/28 02:46:49;;;;;;;28.00;16.02;;;;;;;7.29;72.51;102545.23;1777908;79;25909;-64
2022/10/28 02:49:16;;;;;;;27.30;16.05;;;;;;;7.20;72.40;102562.13;1740249;81;25454;-65
2022/10/28 02:51:59;;;;;;;35.28;18.15;;;;;;;7.11;72.23;102559.86;1769232;79;25806;-64
2022/10/28 02:54:51;;;;;;;29.12;19.92;;;;;;;7.00;72.34;102552.78;1763677;79;25783;-65
2022/10/28 02:57:19;;;;;;;28.57;18.95;;;;;;;6.92;72.61;102551.77;1795393;79;27605;-64
2022/10/28 02:59:58;;;;;;;30.92;18.87;;;;;;;6.86;72.90;102545.37;1783874;79;25774;-64
2022/10/28 03:02:27;;;;;;;30.45;17.07;;;;;;;6.85;73.12;102544.97;1784671;79;25497;-64
2022/10/28 03:04:55;;;;;;;29.82;18.25;;;;;;;6.81;73.03;102547.39;1788025;79;25760;-63
2022/10/28 03:07:24;;;;;;;32.05;17.75;;;;;;;6.76;73.04;102554.28;1774679;79;25694;-65
2022/10/28 03:09:51;;;;;;;27.15;17.82;;;;;;;6.71;73.12;102554.94;1788283;79;27647;-63
2022/10/28 03:12:18;;;;;;;32.70;19.37;;;;;;;6.66;73.08;102551.13;1772487;79;25472;-63
2022/10/28 03:14:45;;;;;;;48.28;21.35;;;;;;;6.63;73.25;102553.95;1782917;79;25450;-63
2022/10/28 03:17:12;;;;;;;34.03;20.55;;;;;;;6.61;73.80;102542.45;1814542;79;25808;-63
2022/10/28 03:19:39;;;;;;;28.67;18.07;;;;;;;6.61;73.88;102548.25;1814586;79;25942;-63
2022/10/28 03:22:07;;;;;;;24.57;15.55;;;;;;;6.60;74.00;102546.50;1813328;78;28184;-63
2022/10/28 03:24:35;;;;;;;30.92;16.82;;;;;;;6.62;74.11;102545.98;1809597;78;25674;-64
2022/10/28 03:27:02;;;;;;;29.92;16.42;;;;;;;6.65;74.28;102540.02;1778944;78;25734;-63
2022/10/28 03:29:29;;;;;;;26.00;14.93;;;;;;;6.68;74.40;102540.38;1752540;79;26711;-63
2022/10/28 03:31:56;;;;;;;26.95;15.65;;;;;;;6.70;74.52;102538.03;1783540;80;25719;-64
2022/10/28 03:34:25;;;;;;;27.02;15.48;;;;;;;6.70;74.61;102531.80;1786282;80;27366;-64
2022/10/28 03:36:51;;;;;;;25.00;15.75;;;;;;;6.72;74.89;102542.82;1785074;78;25766;-63
2022/10/28 03:39:18;;;;;;;29.27;14.28;;;;;;;6.72;74.79;102538.81;1786060;77;25750;-63
2022/10/28 03:41:45;;;;;;;25.48;14.87;;;;;;;6.73;74.67;102540.55;1790098;77;26160;-61
2022/10/28 03:44:13;;;;;;;26.85;14.40;;;;;;;6.71;75.06;102537.55;1783390;78;25711;-62
2022/10/28 03:46:42;;;;;;;41.77;17.80;;;;;;;6.66;75.02;102535.56;1782867;80;29427;-61
2022/10/28 03:49:09;;;;;;;40.17;18.30;;;;;;;6.61;74.89;102543.78;1794616;77;26208;-62
2022/10/28 03:51:36;;;;;;;30.35;16.87;;;;;;;6.58;74.93;102539.45;1786843;79;25712;-62
2022/10/28 03:54:03;;;;;;;25.80;15.45;;;;;;;6.60;74.93;102541.16;1791602;77;25929;-62
2022/10/28 03:56:38;;;;;;;24.20;14.45;;;;;;;6.60;75.00;102541.16;1816875;77;25710;-63
2022/10/28 03:59:14;;;;;;;25.60;14.87;;;;;;;6.62;75.17;102535.28;1766874;80;27093;-63
2022/10/28 04:01:43;;;;;;;24.60;15.40;;;;;;;6.61;75.01;102541.11;1817198;78;25273;-63
2022/10/28 04:04:09;;;;;;;24.12;14.83;;;;;;;6.64;75.03;102543.62;1815286;78;25789;-62
2022/10/28 04:06:38;;;;;;;24.20;15.55;;;;;;;6.69;75.03;102542.09;1818330;78;25693;-63
2022/10/28 04:09:11;;;;;;;29.40;14.43;;;;;;;6.69;74.91;102544.31;1804099;78;26645;-62
2022/10/28 04:11:43;;;;;;;24.60;14.77;;;;;;;6.67;74.71;102535.97;1807529;78;27437;-62
2022/10/28 04:14:11;;;;;;;30.80;15.98;;;;;;;6.67;74.77;102539.49;1818111;78;25832;-64
2022/10/28 04:16:38;;;;;;;26.90;14.28;;;;;;;6.66;74.89;102542.25;1818530;78;25748;-62
2022/10/28 04:19:05;;;;;;;27.25;14.83;;;;;;;6.68;74.88;102537.22;1818920;78;26174;-62
2022/10/28 04:21:34;;;;;;;32.08;14.18;;;;;;;6.69;74.75;102540.30;1818749;78;25792;-63
2022/10/28 04:24:01;;;;;;;26.25;15.30;;;;;;;6.67;74.69;102541.31;1810104;78;27536;-65
2022/10/28 04:26:30;;;;;;;34.92;14.78;;;;;;;6.67;74.56;102543.98;1790983;78;26001;-62
2022/10/28 04:28:58;;;;;;;23.67;15.55;;;;;;;6.66;74.58;102536.90;1803494;77;25757;-62
2022/10/28 04:31:27;;;;;;;32.93;19.00;;;;;;;6.61;74.20;102541.56;1792239;77;25800;-63
2022/10/28 04:33:54;;;;;;;37.28;16.05;;;;;;;6.55;74.15;102540.91;1817583;77;25824;-63
2022/10/28 04:36:21;;;;;;;31.77;15.63;;;;;;;6.50;74.30;102538.87;1817916;78;27463;-63
2022/10/28 04:38:50;;;;;;;42.27;14.85;;;;;;;6.49;74.50;102543.85;1806040;78;25687;-62
2022/10/28 04:41:17;;;;;;;27.87;14.63;;;;;;;6.49;74.50;102545.19;1800010;78;25750;-64
2022/10/28 04:43:44;;;;;;;22.95;15.45;;;;;;;6.47;74.32;102540.37;1768125;80;25860;-64
2022/10/28 04:46:13;;;;;;;23.50;15.50;;;;;;;6.42;74.12;102537.89;1774641;80;25843;-63
2022/10/28 04:48:40;;;;;;;24.05;14.87;;;;;;;6.40;73.97;102537.08;1759386;80;27478;-63
2022/10/28 04:51:08;;;;;;;35.80;18.27;;;;;;;6.37;73.88;102541.69;1790793;80;25690;-63
2022/10/28 04:53:34;;;;;;;34.13;16.75;;;;;;;6.31;73.80;102540.62;1790445;80;25769;-63
2022/10/28 04:56:01;;;;;;;32.90;16.93;;;;;;;6.27;73.84;102538.55;1790830;80;25794;-63
2022/10/28 04:58:30;;;;;;;26.73;15.48;;;;;;;6.23;73.93;102551.63;1764587;80;25707;-63
2022/10/28 05:00:57;;;;;;;27.85;16.20;;;;;;;6.18;73.84;102553.63;1761112;80;28286;-64
2022/10/28 05:03:24;;;;;;;29.80;16.80;;;;;;;6.15;73.85;102549.26;1780061;80;25838;-63
2022/10/28 05:05:51;;;;;;;42.30;16.97;;;;;;;6.11;73.87;102545.84;1780786;80;25703;-63
2022/10/28 05:08:18;;;;;;;29.82;17.60;;;;;;;6.07;73.87;102550.93;1786258;80;26174;-63
2022/10/28 05:10:48;;;;;;;35.15;18.67;;;;;;;6.04;73.92;102543.03;1779553;80;25509;-63
2022/10/28 05:13:14;;;;;;;34.27;17.73;;;;;;;6.03;73.96;102547.97;1780460;80;27567;-61
2022/10/28 05:15:41;;;;;;;33.02;17.62;;;;;;;6.03;73.96;102551.13;1781916;80;26187;-63
2022/10/28 05:18:08;;;;;;;29.30;16.37;;;;;;;6.02;74.09;102543.55;1786390;80;25788;-62
2022/10/28 05:20:36;;;;;;;28.12;17.42;;;;;;;6.05;74.23;102543.92;1790103;80;25778;-61
2022/10/28 05:23:04;;;;;;;31.25;15.65;;;;;;;6.07;74.29;102550.05;1776912;80;25499;-63
2022/10/28 05:25:31;;;;;;;26.80;14.23;;;;;;;6.09;74.44;102551.75;1756085;81;28758;-64
2022/10/28 05:27:59;;;;;;;27.13;14.60;;;;;;;6.14;74.51;102552.86;1774248;80;25807;-63
2022/10/28 05:30:30;;;;;;;20.57;15.53;;;;;;;6.18;74.73;102555.83;1789625;80;25820;-65
2022/10/28 05:33:01;;;;;;;29.10;15.28;;;;;;;6.22;74.78;102554.78;1790302;80;26114;-63
2022/10/28 05:35:29;;;;;;;21.33;14.85;;;;;;;6.28;74.75;102549.62;1790445;80;25711;-63
2022/10/28 05:37:57;;;;;;;27.42;16.05;;;;;;;6.32;74.90;102549.05;1766021;80;27445;-62
2022/10/28 05:40:25;;;;;;;22.48;15.20;;;;;;;6.37;74.98;102551.05;1781174;80;25769;-63
2022/10/28 05:42:52;;;;;;;23.55;15.50;;;;;;;6.44;75.06;102546.31;1773358;80;25813;-64
2022/10/28 05:45:19;;;;;;;20.77;15.30;;;;;;;6.47;75.10;102547.05;1770413;80;26505;-63
2022/10/28 05:47:47;;;;;;;25.57;14.85;;;;;;;6.55;75.19;102542.23;1764902;80;25655;-63
2022/10/28 05:50:20;;;;;;;21.70;14.60;;;;;;;6.65;75.36;102546.70;1785646;80;27467;-63
2022/10/28 05:52:54;;;;;;;28.83;15.93;;;;;;;6.74;75.26;102552.14;1756963;80;25779;-63
2022/10/28 05:55:27;;;;;;;20.88;14.70;;;;;;;6.84;75.13;102559.28;1766587;80;26005;-63
2022/10/28 05:57:55;;;;;;;27.73;15.23;;;;;;;6.94;75.03;102554.41;1774611;80;25795;-63
2022/10/28 06:00:24;;;;;;;17.77;10.75;;;;;;;7.01;74.93;102546.50;1789166;80;25747;-64
2022/10/28 06:02:52;;;;;;;17.73;9.65;;;;;;;7.09;74.76;102548.80;1760808;80;27386;-63
2022/10/28 06:05:20;;;;;;;22.27;11.00;;;;;;;7.17;74.69;102550.69;1767542;80;25747;-64
2022/10/28 06:07:47;;;;;;;29.55;11.57;;;;;;;7.24;74.66;102547.23;1770147;80;25735;-63
2022/10/28 06:10:16;;;;;;;26.02;12.07;;;;;;;7.29;74.45;102544.75;1780675;80;26625;-62
2022/10/28 06:12:43;;;;;;;33.90;12.30;;;;;;;7.33;74.42;102549.49;1776086;80;25722;-63
2022/10/28 06:15:11;;;;;;;28.17;13.18;;;;;;;7.37;74.36;102544.41;1769934;80;27589;-64
2022/10/28 06:17:38;;;;;;;34.75;15.55;;;;;;;7.43;74.34;102548.13;1764074;80;25782;-62
2022/10/28 06:20:06;;;;;;;40.10;16.87;;;;;;;7.44;74.29;102549.87;1769537;80;25702;-63
2022/10/28 06:22:33;;;;;;;44.30;18.77;;;;;;;7.48;74.31;102554.61;1778473;80;25825;-63
2022/10/28 06:25:03;;;;;;;48.95;20.60;;;;;;;7.47;74.08;102552.41;1756014;80;25988;-62
2022/10/28 06:27:32;;;;;;;47.33;20.85;;;;;;;7.51;74.33;102559.34;1756866;80;26892;-62
2022/10/28 06:29:59;;;;;;;58.65;22.98;;;;;;;7.58;74.28;102568.42;1776059;80;25773;-62
2022/10/28 06:32:27;;;;;;;59.93;25.75;;;;;;;7.60;74.12;102561.19;1765525;80;25753;-62
2022/10/28 06:34:54;;;;;;;59.98;25.17;;;;;;;7.64;74.23;102568.15;1778406;80;25789;-63
2022/10/28 06:37:21;;;;;;;56.50;25.80;;;;;;;7.64;74.59;102570.83;1783188;80;25780;-63
2022/10/28 06:39:51;;;;;;;60.92;29.50;;;;;;;7.67;74.86;102565.30;1773532;80;27584;-62
2022/10/28 06:42:17;;;;;;;56.35;27.55;;;;;;;7.70;74.76;102565.17;1765801;80;25827;-64
2022/10/28 06:44:44;;;;;;;85.55;34.23;;;;;;;7.79;74.98;102567.41;1779935;80;25753;-63
2022/10/28 06:47:11;;;;;;;86.78;33.30;;;;;;;7.82;74.84;102565.93;1779040;80;25756;-64
2022/10/28 06:49:38;;;;;;;71.60;31.70;;;;;;;7.87;74.84;102568.84;1779692;80;26333;-63
2022/10/28 06:52:05;;;;;;;62.53;30.05;;;;;;;7.92;74.81;102568.17;1761203;80;27466;-63
2022/10/28 06:54:35;;;;;;;90.83;28.00;;;;;;;7.96;74.93;102571.08;1762594;81;25724;-64
2022/10/28 06:57:03;;;;;;;55.92;23.75;;;;;;;8.02;75.01;102569.91;1765914;80;25669;-63
2022/10/28 06:59:30;;;;;;;42.25;21.90;;;;;;;8.08;75.27;102573.17;1763245;80;26693;-63
2022/10/28 07:01:57;;;;;;;42.05;20.62;;;;;;;8.18;75.32;102578.93;1765256;80;26029;-62
2022/10/28 07:04:24;;;;;;;43.30;21.02;;;;;;;8.26;75.88;102579.41;1760284;80;28349;-64
2022/10/28 07:06:56;;;;;;;37.78;22.40;;;;;;;8.36;75.93;102580.30;1781071;80;25905;-63
2022/10/28 07:09:26;;;;;;;46.40;23.98;;;;;;;8.48;75.86;102579.72;1776685;80;25809;-63
2022/10/28 07:11:54;;;;;;;38.23;23.80;;;;;;;8.58;76.01;102584.12;1753738;80;27846;-62
2022/10/28 07:14:21;;;;;;;40.17;23.75;;;;;;;8.70;76.22;102581.28;1777100;80;25825;-63
2022/10/28 07:16:48;;;;;;;44.55;22.82;;;;;;;8.86;76.77;102580.02;1777946;80;28746;-63
2022/10/28 07:19:16;;;;;;;34.85;23.50;;;;;;;8.95;76.28;102574.17;1778057;80;26035;-65
2022/10/28 07:21:46;;;;;;;41.08;22.67;;;;;;;9.09;76.53;102577.46;1776428;80;25800;-65
2022/10/28 07:24:13;;;;;;;34.35;22.58;;;;;;;9.25;76.68;102573.48;1774446;80;25799;-64
2022/10/28 07:26:40;;;;;;;40.08;20.15;;;;;;;9.37;76.46;102578.17;1780015;80;25770;-62
2022/10/28 07:29:07;;;;;;;33.92;20.17;;;;;;;9.51;76.67;102577.91;1763645;80;28228;-63
2022/10/28 07:31:36;;;;;;;32.55;19.20;;;;;;;9.63;76.76;102574.55;1767727;81;25737;-66
2022/10/28 07:34:03;;;;;;;28.40;19.98;;;;;;;9.84;76.63;102576.95;1766004;81;25720;-64
2022/10/28 07:36:30;;;;;;;34.88;20.45;;;;;;;9.90;76.13;102580.66;1769391;80;25810;-65
2022/10/28 07:39:00;;;;;;;31.00;18.35;;;;;;;10.01;76.26;102571.48;1774065;80;26463;-63
2022/10/28 07:41:29;;;;;;;44.35;21.05;;;;;;;10.19;76.34;102572.71;1762831;80;25809;-63
2022/10/28 07:43:56;;;;;;;42.50;22.15;;;;;;;10.35;76.20;102574.03;1757377;80;25656;-64
2022/10/28 07:46:23;;;;;;;40.67;22.48;;;;;;;10.55;76.07;102581.44;1762538;81;25801;-64
2022/10/28 07:48:51;;;;;;;35.90;21.52;;;;;;;10.71;76.00;102579.55;1751004;80;25836;-63
2022/10/28 07:51:18;;;;;;;52.25;23.95;;;;;;;10.90;75.85;102577.09;1758329;80;25831;-65
2022/10/28 07:53:45;;;;;;;36.63;23.25;;;;;;;11.08;75.68;102575.96;1747537;80;27645;-64
2022/10/28 07:56:12;;;;;;;45.03;25.15;;;;;;;11.24;75.09;102576.34;1746920;82;25760;-64
2022/10/28 07:58:42;;;;;;;51.40;25.05;;;;;;;11.38;74.88;102579.05;1762118;80;25740;-65
2022/10/28 08:01:11;;;;;;;40.85;24.77;;;;;;;11.55;74.41;102571.72;1754123;80;26678;-64
2022/10/28 08:03:39;;;;;;;44.00;24.98;;;;;;;11.71;74.08;102575.61;1760028;80;25475;-63
2022/10/28 08:06:10;;;;;;;38.00;25.05;;;;;;;11.86;73.74;102574.64;1778885;80;28250;-64
2022/10/28 08:08:38;;;;;;;39.38;23.38;;;;;;;12.00;72.92;102574.23;1757356;80;25910;-64
2022/10/28 08:11:15;;;;;;;45.30;24.40;;;;;;;12.12;72.25;102575.25;1753680;80;25812;-63
2022/10/28 08:13:42;;;;;;;44.25;23.77;;;;;;;12.27;72.18;102574.70;1752358;80;25874;-62
2022/10/28 08:16:10;;;;;;;36.50;22.15;;;;;;;12.50;72.08;102581.25;1748160;80;26342;-63
2022/10/28 08:18:38;;;;;;;33.08;21.95;;;;;;;12.70;71.60;102577.18;1748764;80;27475;-64
2022/10/28 08:21:09;;;;;;;37.13;22.02;;;;;;;12.86;71.04;102579.69;1773763;80;25743;-65
2022/10/28 08:23:40;;;;;;;32.25;22.17;;;;;;;13.05;70.81;102576.55;1753416;80;25712;-63
2022/10/28 08:26:07;;;;;;;39.00;21.85;;;;;;;13.28;70.65;102571.37;1747386;80;25632;-64
2022/10/28 08:28:41;;;;;;;31.65;19.98;;;;;;;13.44;69.84;102577.42;1768327;80;26001;-64
2022/10/28 08:31:11;;;;;;;39.63;20.23;;;;;;;13.66;69.22;102577.23;1728180;81;29887;-64
2022/10/28 08:33:43;;;;;;;39.08;20.43;;;;;;;13.86;68.68;102574.41;1748145;80;25442;-64
2022/10/28 08:36:14;;;;;;;43.25;21.75;;;;;;;14.09;68.10;102579.92;1762529;80;25685;-64
2022/10/28 08:38:43;;;;;;;43.65;21.00;;;;;;;14.24;66.90;102569.32;1756461;80;26595;-64
2022/10/28 08:41:37;;;;;;;46.05;20.37;;;;;;;14.45;67.17;102568.64;1755967;80;25811;-64
2022/10/28 08:44:38;;;;;;;43.50;20.32;;;;;;;14.66;66.86;102572.03;1767705;80;27461;-62
2022/10/28 08:47:38;;;;;;;32.98;21.12;;;;;;;15.02;66.70;102571.02;1750802;80;25738;-65
2022/10/28 08:50:17;;;;;;;38.88;22.25;;;;;;;15.39;65.29;102567.23;1770412;80;25781;-64
2022/10/28 08:53:01;;;;;;;39.08;22.32;;;;;;;16.18;63.62;102559.42;1817334;77;25859;-65
2022/10/28 08:55:34;;;;;;;41.30;22.20;;;;;;;17.01;62.80;102560.98;1812073;78;25777;-63
2022/10/28 08:58:16;;;;;;;;;;;;;;;17.78;61.10;102567.34;1822962;78;28264;-64
2022/10/28 09:00:51;;;;;;;29.80;17.87;;;;;;;18.42;60.08;102560.52;1789746;79;25674;-64
2022/10/28 09:03:28;;;;;;;28.47;17.82;;;;;;;18.97;57.89;102554.93;1789668;80;25482;-65
2022/10/28 09:06:05;;;;;;;33.83;16.27;;;;;;;19.29;57.80;102559.13;1787252;80;26472;-64
2022/10/28 09:08:46;;;;;;;34.53;17.40;;;;;;;19.53;56.79;102546.80;1790037;80;25796;-65
2022/10/28 09:11:42;;;;;;;31.05;16.97;;;;;;;19.58;55.39;102544.48;1788356;80;28308;-65
2022/10/28 09:14:42;;;;;;;25.60;16.05;;;;;;;19.71;53.85;102538.14;1807991;79;25737;-63
2022/10/28 09:17:29;;;;;;;25.90;15.65;;;;;;;20.45;52.41;102526.22;1771975;78;25723;-64
2022/10/28 09:20:20;;;;;;;31.37;17.25;;;;;;;21.23;51.31;102530.81;1749051;82;26323;-65
2022/10/28 09:23:05;;;;;;;28.60;16.97;;;;;;;21.87;49.44;102530.36;1767864;80;25689;-64
2022/10/28 09:25:57;;;;;;;23.32;14.15;;;;;;;22.49;50.40;102520.82;1756167;80;27721;-64
2022/10/28 09:29:04;;;;;;;31.62;13.45;;;;;;;23.17;48.20;102518.27;1736300;78;25819;-64
2022/10/28 09:31:46;;;;;;;34.43;15.45;;;;;;;23.72;45.49;102513.17;1815191;78;25812;-65
2022/10/28 09:34:41;;;;;;;17.80;11.60;;;;;;;24.14;45.10;102517.05;1799002;78;26445;-65
2022/10/28 09:37:43;;;;;;;19.10;9.88;;;;;;;24.56;43.87;102510.66;1784814;79;25767;-64
2022/10/28 09:40:24;;;;;;;20.37;8.00;;;;;;;24.85;41.89;102504.34;1768169;79;27433;-64
2022/10/28 09:43:15;;;;;;;18.48;8.53;;;;;;;25.37;41.00;102504.38;1770125;79;25862;-64
2022/10/28 09:45:46;;;;;;;20.85;9.83;;;;;;;25.86;40.60;102509.22;1771954;80;25734;-65
2022/10/28 09:48:30;;;;;;;18.77;9.23;;;;;;;26.30;39.98;102509.22;1775091;80;25788;-64
2022/10/28 09:50:56;;;;;;;15.65;7.97;;;;;;;26.68;39.06;102503.33;1767021;80;25717;-63
2022/10/28 09:53:53;;;;;;;24.40;10.05;;;;;;;27.13;38.20;102496.08;1811815;77;27517;-64
2022/10/28 09:56:20;;;;;;;19.50;10.40;;;;;;;27.51;36.57;102496.12;1812001;79;26084;-64
2022/10/28 09:58:48;;;;;;;18.23;8.75;;;;;;;27.88;36.51;102488.34;1811878;77;25678;-64
2022/10/28 10:01:17;;;;;;;16.62;9.08;;;;;;;28.38;35.71;102487.41;1812066;79;25804;-64
2022/10/28 10:03:51;;;;;;;15.53;8.75;;;;;;;28.77;33.62;102484.84;1780558;78;25742;-64
2022/10/28 10:06:35;;;;;;;21.93;8.58;;;;;;;28.87;33.84;102478.28;1770992;81;27458;-64
2022/10/28 10:09:04;;;;;;;18.75;9.48;;;;;;;29.07;32.61;102480.69;1770460;80;25750;-65
2022/10/28 10:11:41;;;;;;;18.65;7.78;;;;;;;29.14;33.17;102475.41;1770944;81;25740;-65
2022/10/28 10:14:13;;;;;;;9.80;7.35;;;;;;;29.38;32.53;102473.52;1770600;79;25794;-66
2022/10/28 10:16:54;;;;;;;18.80;8.83;;;;;;;29.41;31.92;102466.16;1770984;79;25873;-66
2022/10/28 10:19:21;;;;;;;18.07;7.92;;;;;;;29.42;32.54;102465.09;1771185;79;27420;-65
2022/10/28 10:21:51;;;;;;;17.50;8.93;;;;;;;29.34;32.20;102467.05;1770697;81;26544;-66
2022/10/28 10:24:32;;;;;;;25.48;9.48;;;;;;;29.54;32.15;102454.97;1770759;80;25677;-66
2022/10/28 10:27:07;;;;;;;26.07;12.35;;;;;;;29.80;31.58;102452.56;1770678;80;25839;-65
2022/10/28 10:29:35;;;;;;;40.23;13.30;;;;;;;29.85;30.44;102451.05;1769281;80;25797;-66
2022/10/28 10:32:19;;;;;;;24.63;12.78;;;;;;;30.11;30.09;102445.82;1770786;80;27511;-65
2022/10/28 10:35:11;;;;;;;16.17;9.48;;;;;;;30.13;29.71;102442.29;1766138;80;26322;-65
2022/10/28 10:37:43;;;;;;;16.97;8.23;;;;;;;30.16;30.87;102440.45;1770610;81;25801;-64
2022/10/28 10:40:36;;;;;;;15.38;8.03;;;;;;;30.47;30.63;102439.19;1766616;79;26513;-65
2022/10/28 10:43:30;;;;;;;26.25;8.48;;;;;;;30.70;29.75;102432.98;1760573;80;25700;-65
2022/10/28 10:46:15;;;;;;;16.87;8.30;;;;;;;30.80;29.13;102430.48;1761075;81;27536;-64
2022/10/28 10:48:43;;;;;;;19.32;8.95;;;;;;;30.90;29.10;102423.84;1760296;81;25485;-65
2022/10/28 10:51:19;;;;;;;20.75;7.50;;;;;;;31.22;28.14;102425.58;1760909;80;25822;-66
2022/10/28 10:53:59;;;;;;;16.20;6.85;;;;;;;31.36;28.43;102424.32;1761062;80;26659;-65
2022/10/28 10:56:30;;;;;;;16.27;6.62;;;;;;;31.55;28.61;102424.26;1761438;80;26099;-65
2022/10/28 10:59:03;;;;;;;12.65;6.67;;;;;;;31.86;28.30;102420.05;1791967;80;27604;-65
2022/10/28 11:01:37;;;;;;;27.25;7.25;;;;;;;31.86;28.06;102417.27;1793639;80;26378;-64
2022/10/28 11:04:08;;;;;;;22.27;7.42;;;;;;;32.21;28.52;102411.69;1793632;80;25730;-65
2022/10/28 11:06:41;;;;;;;18.67;7.00;;;;;;;32.67;27.08;102413.30;1760635;80;25831;-66
2022/10/28 11:09:26;;;;;;;13.08;6.87;;;;;;;32.76;26.74;102410.43;1793477;80;25777;-65
2022/10/28 11:11:54;;;;;;;13.55;8.28;;;;;;;32.85;26.66;102407.28;1792777;80;27487;-64
2022/10/28 11:14:32;;;;;;;22.25;7.90;;;;;;;32.95;27.00;102397.70;1793568;80;25697;-65
2022/10/28 11:17:00;;;;;;;16.55;7.60;;;;;;;33.00;26.60;102399.22;1792327;80;25749;-65
2022/10/28 11:19:34;;;;;;;22.32;8.00;;;;;;;32.95;26.20;102397.70;1793802;80;25786;-66
2022/10/28 11:22:38;;;;;;;11.60;6.85;;;;;;;32.72;26.03;102395.84;1793791;80;25949;-64
2022/10/28 11:25:39;;;;;;;14.58;7.72;;;;;;;32.38;25.94;102385.38;1793436;80;27485;-65
2022/10/28 11:28:34;;;;;;;19.12;7.20;;;;;;;31.79;26.61;102381.20;1793516;80;25805;-64
2022/10/28 11:31:44;;;;;;;16.25;7.83;;;;;;;31.44;26.97;102383.36;1793853;80;25818;-66
2022/10/28 11:34:49;;;;;;;24.75;7.40;;;;;;;31.10;27.28;102378.29;1793383;80;25840;-65
2022/10/28 11:37:44;;;;;;;20.82;6.85;;;;;;;30.81;27.59;102378.01;1793873;80;26309;-65
2022/10/28 11:40:38;;;;;;;14.05;6.97;;;;;;;30.60;27.67;102371.02;1778399;80;27814;-65
2022/10/28 11:43:36;;;;;;;21.52;7.50;;;;;;;30.34;27.58;102367.45;1793619;80;25777;-64
2022/10/28 11:46:21;;;;;;;13.10;8.20;;;;;;;30.17;27.46;102366.36;1793511;80;25820;-66
2022/10/28 11:49:15;;;;;;;20.92;8.65;;;;;;;29.78;28.29;102370.66;1793833;80;27285;-64
2022/10/28 11:52:21;;;;;;;18.45;8.40;;;;;;;29.43;28.54;102362.84;1793512;80;26083;-64